createdAt,value
2024-01-08T00:00:09.363Z,16.93
2024-01-08T00:02:38.038Z,16.90
2024-01-08T00:05:07.020Z,17.67
2024-01-08T00:07:35.538Z,16.43
2024-01-08T00:10:05.958Z,18.07
2024-01-08T00:12:34.506Z,18.13
2024-01-08T00:15:02.985Z,18.17
2024-01-08T00:17:31.556Z,21.93
2024-01-08T00:20:00.207Z,20.40
2024-01-08T00:22:28.762Z,15.87
2024-01-08T00:24:57.373Z,16.40
2024-01-08T00:27:27.273Z,18.00
2024-01-08T00:29:55.802Z,16.87
2024-01-08T00:32:24.390Z,18.30
2024-01-08T00:34:53.024Z,17.40
2024-01-08T00:37:21.469Z,21.43
2024-01-08T00:39:50.401Z,19.27
2024-01-08T00:42:18.925Z,19.00
2024-01-08T00:44:50.143Z,16.50
2024-01-08T00:47:18.618Z,21.80
2024-01-08T00:49:47.200Z,18.00
2024-01-08T00:52:15.768Z,19.53
2024-01-08T00:54:44.257Z,19.47
2024-01-08T00:57:12.772Z,19.87
2024-01-08T00:59:41.340Z,18.90
2024-01-08T01:02:11.338Z,18.27
2024-01-08T01:04:39.973Z,20.03
2024-01-08T01:07:08.636Z,23.17
2024-01-08T01:09:37.144Z,16.90
2024-01-08T01:12:06.118Z,18.03
2024-01-08T01:14:34.790Z,15.33
2024-01-08T01:17:03.582Z,23.53
2024-01-08T01:19:33.587Z,17.53
2024-01-08T01:22:02.148Z,18.53
2024-01-08T01:24:30.634Z,22.07
2024-01-08T01:26:59.188Z,20.57
2024-01-08T01:29:27.688Z,19.37
2024-01-08T01:31:56.274Z,19.57
2024-01-08T01:34:24.843Z,20.10
2024-01-08T01:36:55.200Z,22.30
2024-01-08T01:39:23.711Z,20.80
2024-01-08T01:41:53.621Z,17.60
2024-01-08T01:44:23.338Z,21.07
2024-01-08T01:46:53.210Z,19.67
2024-01-08T01:49:23.469Z,21.67
2024-01-08T01:51:54.753Z,22.10
2024-01-08T01:54:25.116Z,16.03
2024-01-08T01:56:57.229Z,23.17
2024-01-08T01:59:29.258Z,21.33
2024-01-08T02:01:59.286Z,21.43
2024-01-08T02:04:28.433Z,19.97
2024-01-08T02:06:58.836Z,22.40
2024-01-08T02:09:29.239Z,19.13
2024-01-08T02:11:57.779Z,17.93
2024-01-08T02:14:26.411Z,21.07
2024-01-08T02:16:55.083Z,21.93
2024-01-08T02:19:23.700Z,19.93
2024-01-08T02:21:52.303Z,19.97
2024-01-08T02:24:22.206Z,18.90
2024-01-08T02:26:50.795Z,20.13
2024-01-08T02:29:20.963Z,24.23
2024-01-08T02:31:49.927Z,21.20
2024-01-08T02:34:18.529Z,18.83
2024-01-08T02:36:47.053Z,22.33
2024-01-08T02:39:15.469Z,18.80
2024-01-08T02:41:45.330Z,20.90
2024-01-08T02:44:14.095Z,20.67
2024-01-08T02:46:42.850Z,17.97
2024-01-08T02:49:11.546Z,19.97
2024-01-08T02:51:40.157Z,19.07
2024-01-08T02:54:08.693Z,19.17
2024-01-08T02:56:37.201Z,19.93
2024-01-08T02:59:08.182Z,24.33
2024-01-08T03:01:37.605Z,16.83
2024-01-08T03:04:06.784Z,22.10
2024-01-08T03:06:35.366Z,19.63
2024-01-08T03:09:03.897Z,20.60
2024-01-08T03:11:32.439Z,19.67
2024-01-08T03:14:01.145Z,22.23
2024-01-08T03:16:31.166Z,20.57
2024-01-08T03:18:59.777Z,18.43
2024-01-08T03:21:28.309Z,19.80
2024-01-08T03:23:57.058Z,17.87
2024-01-08T03:26:25.775Z,20.40
2024-01-08T03:28:54.498Z,18.53
2024-01-08T03:31:23.064Z,19.60
2024-01-08T03:33:53.194Z,18.80
2024-01-08T03:36:21.740Z,21.23
2024-01-08T03:38:50.329Z,17.47
2024-01-08T03:41:18.949Z,17.83
2024-01-08T03:43:47.607Z,22.87
2024-01-08T03:46:16.191Z,17.97
2024-01-08T03:48:45.091Z,19.17
2024-01-08T03:51:15.193Z,21.20
2024-01-08T03:53:43.743Z,20.00
2024-01-08T03:56:12.392Z,20.27
2024-01-08T03:58:40.918Z,18.70
2024-01-08T04:01:09.456Z,22.37
2024-01-08T04:03:38.156Z,18.40
2024-01-08T04:06:07.437Z,21.17
2024-01-08T04:08:37.524Z,19.83
2024-01-08T04:11:06.407Z,18.73
2024-01-08T04:13:34.946Z,19.90
2024-01-08T04:16:03.524Z,17.87
2024-01-08T04:18:32.262Z,20.23
2024-01-08T04:21:00.909Z,18.27
2024-01-08T04:23:29.793Z,20.97
2024-01-08T04:26:00.485Z,20.30
2024-01-08T04:28:29.081Z,19.17
2024-01-08T04:30:57.675Z,19.50
2024-01-08T04:33:26.373Z,18.90
2024-01-08T04:35:54.902Z,22.30
2024-01-08T04:38:23.773Z,19.67
2024-01-08T04:40:52.308Z,20.63
2024-01-08T04:43:22.307Z,23.87
2024-01-08T04:45:50.783Z,21.60
2024-01-08T04:48:20.044Z,22.20
2024-01-08T04:50:49.237Z,21.10
2024-01-08T04:53:17.979Z,22.03
2024-01-08T04:55:46.572Z,20.30
2024-01-08T04:58:15.113Z,19.67
2024-01-08T05:00:45.154Z,21.83
2024-01-08T05:03:13.998Z,20.87
2024-01-08T05:05:43.234Z,21.97
2024-01-08T05:08:11.862Z,22.27
2024-01-08T05:10:40.334Z,18.03
2024-01-08T05:13:08.803Z,23.10
2024-01-08T05:15:37.408Z,19.60
2024-01-08T05:18:10.226Z,19.87
2024-01-08T05:20:38.903Z,17.23
2024-01-08T05:23:07.696Z,20.50
2024-01-08T05:25:36.452Z,17.17
2024-01-08T05:28:06.659Z,21.50
2024-01-08T05:30:36.127Z,16.90
2024-01-08T05:33:06.524Z,19.17
2024-01-08T05:35:36.724Z,18.60
2024-01-08T05:38:06.312Z,13.40
2024-01-08T05:40:35.032Z,17.43
2024-01-08T05:43:04.067Z,22.30
2024-01-08T05:45:32.747Z,21.33
2024-01-08T05:48:01.586Z,16.77
2024-01-08T05:50:31.574Z,19.70
2024-01-08T05:53:01.611Z,16.67
2024-01-08T05:55:30.130Z,18.27
2024-01-08T05:57:58.674Z,19.30
2024-01-08T06:00:27.190Z,20.97
2024-01-08T06:02:55.684Z,14.33
2024-01-08T06:05:24.496Z,19.10
2024-01-08T06:07:54.833Z,17.70
2024-01-08T06:10:23.470Z,19.63
2024-01-08T06:12:51.938Z,21.57
2024-01-08T06:15:20.440Z,19.33
2024-01-08T06:17:49.394Z,20.53
2024-01-08T06:20:18.180Z,17.87
2024-01-08T06:22:46.673Z,19.50
2024-01-08T06:25:16.854Z,20.77
2024-01-08T06:27:45.356Z,18.23
2024-01-08T06:30:14.921Z,19.57
2024-01-08T06:32:43.742Z,17.50
2024-01-08T06:35:12.436Z,19.13
2024-01-08T06:37:40.979Z,24.70
2024-01-08T06:40:10.797Z,18.83
2024-01-08T06:42:52.505Z,20.30
2024-01-08T06:45:29.028Z,23.50
2024-01-08T06:47:57.874Z,18.83
2024-01-08T06:50:27.198Z,17.60
2024-01-08T06:52:55.877Z,21.23
2024-01-08T06:55:24.494Z,21.40
2024-01-08T06:57:54.463Z,18.33
2024-01-08T07:00:23.248Z,22.33
2024-01-08T07:02:52.364Z,17.93
2024-01-08T07:05:21.272Z,19.07
2024-01-08T07:07:49.848Z,23.33
2024-01-08T07:10:18.351Z,21.07
2024-01-08T07:12:47.932Z,19.70
2024-01-08T07:15:38.946Z,22.13
2024-01-08T07:18:10.361Z,21.27
2024-01-08T07:20:39.726Z,16.97
2024-01-08T07:23:10.786Z,19.83
2024-01-08T07:25:40.167Z,17.67
2024-01-08T07:28:10.019Z,22.83
2024-01-08T07:30:40.593Z,24.40
2024-01-08T07:33:09.448Z,19.33
2024-01-08T07:35:38.328Z,21.53
2024-01-08T07:38:07.426Z,25.50
2024-01-08T07:40:36.058Z,23.57
2024-01-08T07:43:04.723Z,25.67
2024-01-08T07:45:33.239Z,25.43
2024-01-08T07:48:03.449Z,21.10
2024-01-08T07:50:32.171Z,21.77
2024-01-08T07:53:00.766Z,19.57
2024-01-08T07:55:29.205Z,20.10
2024-01-08T07:57:57.910Z,21.30
2024-01-08T08:00:26.905Z,20.33
2024-01-08T08:02:56.146Z,22.83
2024-01-08T08:05:29.473Z,21.87
2024-01-08T08:08:00.437Z,24.23
2024-01-08T08:10:29.155Z,25.23
2024-01-08T08:12:57.790Z,15.97
2024-01-08T08:15:26.738Z,26.33
2024-01-08T08:17:55.750Z,23.77
2024-01-08T08:20:26.136Z,21.80
2024-01-08T08:22:54.916Z,20.80
2024-01-08T08:25:23.731Z,23.07
2024-01-08T08:27:52.132Z,22.23
2024-01-08T08:30:23.814Z,19.63
2024-01-08T08:32:52.753Z,19.17
2024-01-08T08:35:21.455Z,22.40
2024-01-08T08:37:53.926Z,27.47
2024-01-08T08:40:24.452Z,21.03
2024-01-08T08:42:53.513Z,23.27
2024-01-08T08:45:22.391Z,25.30
2024-01-08T08:47:51.981Z,24.93
2024-01-08T08:50:21.097Z,21.17
2024-01-08T08:52:51.273Z,21.60
2024-01-08T08:55:19.890Z,22.60
2024-01-08T08:57:48.609Z,23.40
2024-01-08T09:00:20.794Z,22.07
2024-01-08T09:02:53.984Z,23.73
2024-01-08T09:05:32.314Z,20.37
2024-01-08T09:08:07.699Z,20.43
2024-01-08T09:10:36.811Z,22.40
2024-01-08T09:13:05.703Z,25.77
2024-01-08T09:15:34.384Z,20.03
2024-01-08T09:18:03.836Z,23.57
2024-01-08T09:20:34.698Z,21.83
2024-01-08T09:23:03.410Z,22.03
2024-01-08T09:25:33.590Z,25.77
2024-01-08T09:28:02.163Z,21.40
2024-01-08T09:30:30.844Z,25.27
2024-01-08T09:33:00.239Z,20.97
2024-01-08T09:35:29.142Z,27.20
2024-01-08T09:37:57.960Z,20.40
2024-01-08T09:40:26.900Z,23.67
2024-01-08T09:43:00.382Z,24.93
2024-01-08T09:45:30.804Z,29.23
2024-01-08T09:47:59.660Z,22.70
2024-01-08T09:50:28.627Z,24.90
2024-01-08T09:52:58.483Z,24.23
2024-01-08T09:55:28.154Z,21.57
2024-01-08T09:57:58.989Z,23.27
2024-01-08T10:00:27.614Z,28.07
2024-01-08T10:02:58.408Z,27.67
2024-01-08T10:05:30.099Z,24.60
2024-01-08T10:08:02.118Z,28.47
2024-01-08T10:10:31.318Z,23.07
2024-01-08T10:13:01.552Z,24.53
2024-01-08T10:15:30.615Z,23.40
2024-01-08T10:18:03.709Z,20.87
2024-01-08T10:20:33.159Z,26.00
2024-01-08T10:23:11.952Z,22.50
2024-01-08T10:25:41.547Z,26.03
2024-01-08T10:28:12.642Z,24.60
2024-01-08T10:30:43.026Z,27.43
2024-01-08T10:33:12.055Z,21.40
2024-01-08T10:35:42.873Z,25.67
2024-01-08T10:38:11.939Z,26.57
2024-01-08T10:40:40.801Z,26.33
2024-01-08T10:43:10.466Z,26.73
2024-01-08T10:45:40.532Z,26.10
2024-01-08T10:48:16.130Z,25.63
2024-01-08T10:50:48.695Z,29.23
2024-01-08T10:53:25.536Z,25.37
2024-01-08T10:55:54.797Z,28.60
2024-01-08T10:58:32.711Z,30.50
2024-01-08T11:01:03.639Z,26.67
2024-01-08T11:03:32.574Z,26.10
2024-01-08T11:06:04.110Z,23.73
2024-01-08T11:08:34.977Z,25.97
2024-01-08T11:11:13.066Z,26.03
2024-01-08T11:13:42.662Z,23.23
2024-01-08T11:16:15.776Z,34.50
2024-01-08T11:18:44.461Z,28.10
2024-01-08T11:21:13.226Z,28.33
2024-01-08T11:23:44.406Z,30.33
2024-01-08T11:26:17.058Z,29.67
2024-01-08T11:29:04.637Z,27.07
2024-01-08T11:32:09.419Z,25.73
2024-01-08T11:35:02.547Z,28.70
2024-01-08T11:37:36.053Z,27.57
2024-01-08T11:40:09.295Z,29.20
2024-01-08T11:42:37.831Z,31.43
2024-01-08T11:45:06.985Z,25.20
2024-01-08T11:47:38.254Z,26.50
2024-01-08T11:50:07.838Z,30.00
2024-01-08T11:52:38.554Z,26.67
2024-01-08T11:55:09.581Z,26.03
2024-01-08T11:57:38.552Z,26.27
2024-01-08T12:00:14.758Z,29.10
2024-01-08T12:02:45.416Z,31.43
2024-01-08T12:05:14.373Z,28.63
2024-01-08T12:07:43.719Z,25.07
2024-01-08T12:10:14.701Z,24.80
2024-01-08T12:12:43.456Z,25.50
2024-01-08T12:15:12.037Z,25.90
2024-01-08T12:17:41.627Z,24.70
2024-01-08T12:20:13.572Z,25.33
2024-01-08T12:22:42.807Z,29.33
2024-01-08T12:25:13.219Z,21.43
2024-01-08T12:27:42.341Z,22.83
2024-01-08T12:30:13.713Z,24.67
2024-01-08T12:32:42.960Z,23.47
2024-01-08T12:35:16.604Z,26.97
2024-01-08T12:37:46.526Z,22.83
2024-01-08T12:40:15.793Z,26.60
2024-01-08T12:42:45.481Z,22.20
2024-01-08T12:45:14.153Z,24.90
2024-01-08T12:47:42.895Z,24.73
2024-01-08T12:50:13.045Z,26.70
2024-01-08T12:52:41.606Z,23.77
2024-01-08T12:55:10.859Z,20.10
2024-01-08T12:57:39.479Z,25.83
2024-01-08T13:00:09.206Z,23.60
2024-01-08T13:02:37.777Z,23.20
2024-01-08T13:05:07.067Z,22.30
2024-01-08T13:07:37.407Z,27.87
2024-01-08T13:10:07.258Z,23.23
2024-01-08T13:12:37.600Z,23.20
2024-01-08T13:15:07.812Z,23.43
2024-01-08T13:17:36.846Z,26.83
2024-01-08T13:20:19.037Z,24.20
2024-01-08T13:22:55.964Z,26.93
2024-01-08T13:25:25.310Z,24.67
2024-01-08T13:27:53.895Z,27.37
2024-01-08T13:30:22.679Z,27.50
2024-01-08T13:32:51.509Z,25.27
2024-01-08T13:35:20.165Z,26.50
2024-01-08T13:37:49.406Z,27.17
2024-01-08T13:40:22.516Z,24.57
2024-01-08T13:42:52.797Z,22.00
2024-01-08T13:45:21.459Z,23.80
2024-01-08T13:47:51.563Z,22.27
2024-01-08T13:50:20.684Z,16.70
2024-01-08T13:52:49.334Z,25.57
2024-01-08T13:55:19.161Z,25.77
